sensor_id;sensor_type;location;lat;lon;timestamp;temperature;humidity
54824;DHT22;40724;53.196;5.980;2023-04-08T08:35:02;9.20;99.90
54824;DHT22;40724;53.196;5.980;2023-04-08T08:44:47;7.20;99.90
54824;DHT22;40724;53.196;5.980;2023-04-08T08:47:13;7.20;99.90
54824;DHT22;40724;53.196;5.980;2023-04-08T08:49:39;7.20;99.90
54824;DHT22;40724;53.196;5.980;2023-04-08T08:52:06;7.20;99.90
54824;DHT22;40724;53.196;5.980;2023-04-08T08:54:32;7.30;99.90
54824;DHT22;40724;53.196;5.980;2023-04-08T08:56:58;7.30;99.90
54824;DHT22;40724;53.196;5.980;2023-04-08T08:59:24;7.30;99.90
54824;DHT22;40724;53.196;5.980;2023-04-08T09:01:49;7.30;99.90
54824;DHT22;40724;53.196;5.980;2023-04-08T09:04:17;7.30;99.90
54824;DHT22;40724;53.196;5.980;2023-04-08T09:06:45;7.40;99.90
54824;DHT22;40724;53.196;5.980;2023-04-08T09:09:12;7.40;99.90
54824;DHT22;40724;53.196;5.980;2023-04-08T09:11:40;7.40;99.90
54824;DHT22;40724;53.196;5.980;2023-04-08T09:14:25;7.40;99.90
54824;DHT22;40724;53.196;5.980;2023-04-08T09:16:51;7.40;99.90
54824;DHT22;40724;53.196;5.980;2023-04-08T09:19:17;7.50;99.90
54824;DHT22;40724;53.196;5.980;2023-04-08T09:21:43;7.50;99.90
54824;DHT22;40724;53.196;5.980;2023-04-08T09:24:26;7.50;99.90
54824;DHT22;40724;53.196;5.980;2023-04-08T09:26:53;7.60;99.90
54824;DHT22;40724;53.196;5.980;2023-04-08T09:29:22;7.60;99.90
54824;DHT22;40724;53.196;5.980;2023-04-08T09:31:53;7.50;99.90
54824;DHT22;40724;53.196;5.980;2023-04-08T09:34:18;7.50;99.90
54824;DHT22;40724;53.196;5.980;2023-04-08T09:36:46;7.50;99.90
54824;DHT22;40724;53.196;5.980;2023-04-08T09:39:14;7.50;99.90
54824;DHT22;40724;53.196;5.980;2023-04-08T09:41:40;7.50;99.90
54824;DHT22;40724;53.196;5.980;2023-04-08T09:44:09;7.50;99.90
54824;DHT22;40724;53.196;5.980;2023-04-08T09:49:35;7.60;99.90
54824;DHT22;40724;53.196;5.980;2023-04-08T10:00:27;7.60;99.90
54824;DHT22;40724;53.196;5.980;2023-04-08T10:05:52;7.70;99.90
54824;DHT22;40724;53.196;5.980;2023-04-08T10:08:18;7.70;99.90
54824;DHT22;40724;53.196;5.980;2023-04-08T10:10:44;7.70;99.90
54824;DHT22;40724;53.196;5.980;2023-04-08T10:13:11;7.70;99.90
54824;DHT22;40724;53.196;5.980;2023-04-08T10:15:37;7.70;99.90
54824;DHT22;40724;53.196;5.980;2023-04-08T11:44:54;7.80;99.90
54824;DHT22;40724;53.196;5.980;2023-04-08T12:58:08;8.50;99.90
54824;DHT22;40724;53.196;5.980;2023-04-08T13:00:33;8.90;99.90
54824;DHT22;40724;53.196;5.980;2023-04-08T13:03:03;8.90;99.90
54824;DHT22;40724;53.196;5.980;2023-04-08T13:05:29;8.90;99.90
54824;DHT22;40724;53.196;5.980;2023-04-08T13:07:55;8.90;99.90
54824;DHT22;40724;53.196;5.980;2023-04-08T13:10:20;9.00;99.90
54824;DHT22;40724;53.196;5.980;2023-04-08T13:12:46;8.90;99.90
54824;DHT22;40724;53.196;5.980;2023-04-08T13:15:12;8.90;99.90
54824;DHT22;40724;53.196;5.980;2023-04-08T13:17:38;9.00;99.90
54824;DHT22;40724;53.196;5.980;2023-04-08T13:20:04;9.00;99.90
54824;DHT22;40724;53.196;5.980;2023-04-08T13:22:30;9.00;99.90
54824;DHT22;40724;53.196;5.980;2023-04-08T13:24:58;9.00;99.90
54824;DHT22;40724;53.196;5.980;2023-04-08T13:27:23;9.10;99.90
54824;DHT22;40724;53.196;5.980;2023-04-08T13:29:49;9.00;99.90
54824;DHT22;40724;53.196;5.980;2023-04-08T13:32:15;9.00;99.90
54824;DHT22;40724;53.196;5.980;2023-04-08T13:34:41;9.10;99.90
54824;DHT22;40724;53.196;5.980;2023-04-08T13:37:06;9.00;99.90
54824;DHT22;40724;53.196;5.980;2023-04-08T13:39:32;9.00;99.90
54824;DHT22;40724;53.196;5.980;2023-04-08T13:41:58;9.00;99.90
54824;DHT22;40724;53.196;5.980;2023-04-08T13:44:24;9.00;99.90
54824;DHT22;40724;53.196;5.980;2023-04-08T13:46:50;9.10;99.90
54824;DHT22;40724;53.196;5.980;2023-04-08T13:49:16;9.00;99.90
54824;DHT22;40724;53.196;5.980;2023-04-08T13:51:41;9.10;99.90
54824;DHT22;40724;53.196;5.980;2023-04-08T13:54:07;9.10;99.90
54824;DHT22;40724;53.196;5.980;2023-04-08T13:56:33;9.10;99.90
54824;DHT22;40724;53.196;5.980;2023-04-08T13:58:59;9.10;99.90
54824;DHT22;40724;53.196;5.980;2023-04-08T14:01:24;9.10;99.90
54824;DHT22;40724;53.196;5.980;2023-04-08T14:03:50;9.10;99.90
54824;DHT22;40724;53.196;5.980;2023-04-08T14:06:16;9.10;99.90
54824;DHT22;40724;53.196;5.980;2023-04-08T14:08:42;9.10;99.90
54824;DHT22;40724;53.196;5.980;2023-04-08T14:11:07;9.10;99.90
54824;DHT22;40724;53.196;5.980;2023-04-08T14:13:33;9.10;99.90
54824;DHT22;40724;53.196;5.980;2023-04-08T14:15:59;9.10;99.90
54824;DHT22;40724;53.196;5.980;2023-04-08T14:18:26;9.20;99.90
54824;DHT22;40724;53.196;5.980;2023-04-08T14:20:53;9.20;99.90
54824;DHT22;40724;53.196;5.980;2023-04-08T14:23:19;9.20;99.90
54824;DHT22;40724;53.196;5.980;2023-04-08T14:25:45;9.20;99.90
54824;DHT22;40724;53.196;5.980;2023-04-08T14:28:11;9.20;99.90
54824;DHT22;40724;53.196;5.980;2023-04-08T14:30:37;9.20;99.90
54824;DHT22;40724;53.196;5.980;2023-04-08T14:33:03;9.30;99.90
54824;DHT22;40724;53.196;5.980;2023-04-08T14:35:29;9.30;99.90
54824;DHT22;40724;53.196;5.980;2023-04-08T14:37:55;9.30;99.90
54824;DHT22;40724;53.196;5.980;2023-04-08T14:40:22;9.30;99.90
54824;DHT22;40724;53.196;5.980;2023-04-08T14:42:48;9.40;99.90
54824;DHT22;40724;53.196;5.980;2023-04-08T14:45:15;9.40;99.90
54824;DHT22;40724;53.196;5.980;2023-04-08T14:47:40;9.40;99.90
54824;DHT22;40724;53.196;5.980;2023-04-08T14:50:07;9.50;99.90
54824;DHT22;40724;53.196;5.980;2023-04-08T14:52:32;9.50;99.90
54824;DHT22;40724;53.196;5.980;2023-04-08T15:09:35;9.50;99.90
54824;DHT22;40724;53.196;5.980;2023-04-08T15:19:20;9.80;99.90
54824;DHT22;40724;53.196;5.980;2023-04-08T15:21:45;9.80;99.90
54824;DHT22;40724;53.196;5.980;2023-04-08T15:24:11;9.80;99.90
54824;DHT22;40724;53.196;5.980;2023-04-08T15:26:38;9.90;99.90
54824;DHT22;40724;53.196;5.980;2023-04-08T15:29:04;9.90;99.90
54824;DHT22;40724;53.196;5.980;2023-04-08T15:31:30;9.90;99.90
54824;DHT22;40724;53.196;5.980;2023-04-08T15:33:57;9.90;99.90
54824;DHT22;40724;53.196;5.980;2023-04-08T15:36:23;9.90;99.90
54824;DHT22;40724;53.196;5.980;2023-04-08T15:38:49;9.90;99.90
54824;DHT22;40724;53.196;5.980;2023-04-08T15:41:16;10.00;99.90
54824;DHT22;40724;53.196;5.980;2023-04-08T15:43:47;10.00;99.90
54824;DHT22;40724;53.196;5.980;2023-04-08T15:46:19;10.00;99.90
54824;DHT22;40724;53.196;5.980;2023-04-08T15:48:46;10.00;99.90
54824;DHT22;40724;53.196;5.980;2023-04-08T15:51:12;10.00;99.90
54824;DHT22;40724;53.196;5.980;2023-04-08T15:53:41;10.00;99.90
54824;DHT22;40724;53.196;5.980;2023-04-08T15:56:16;10.00;99.90
54824;DHT22;40724;53.196;5.980;2023-04-08T15:58:43;10.00;99.90
54824;DHT22;40724;53.196;5.980;2023-04-08T16:01:09;10.00;99.90
54824;DHT22;40724;53.196;5.980;2023-04-08T16:03:35;10.00;99.90
54824;DHT22;40724;53.196;5.980;2023-04-08T16:06:01;10.00;99.90
54824;DHT22;40724;53.196;5.980;2023-04-08T16:08:27;10.00;99.90
54824;DHT22;40724;53.196;5.980;2023-04-08T16:11:01;10.00;99.90
54824;DHT22;40724;53.196;5.980;2023-04-08T16:13:27;10.00;99.90
54824;DHT22;40724;53.196;5.980;2023-04-08T16:15:54;9.90;99.90
54824;DHT22;40724;53.196;5.980;2023-04-08T16:18:21;9.90;99.90
54824;DHT22;40724;53.196;5.980;2023-04-08T16:20:46;9.90;99.90
54824;DHT22;40724;53.196;5.980;2023-04-08T16:23:14;9.90;99.90
54824;DHT22;40724;53.196;5.980;2023-04-08T16:25:41;9.90;99.90
54824;DHT22;40724;53.196;5.980;2023-04-08T16:28:07;9.80;99.90
54824;DHT22;40724;53.196;5.980;2023-04-08T16:30:33;9.80;99.90
54824;DHT22;40724;53.196;5.980;2023-04-08T16:33:02;9.80;99.90
54824;DHT22;40724;53.196;5.980;2023-04-08T16:35:28;9.80;99.90
54824;DHT22;40724;53.196;5.980;2023-04-08T16:37:54;9.80;99.90
54824;DHT22;40724;53.196;5.980;2023-04-08T16:40:20;9.80;99.90
54824;DHT22;40724;53.196;5.980;2023-04-08T16:42:46;9.70;99.90
54824;DHT22;40724;53.196;5.980;2023-04-08T16:45:13;9.70;99.90
54824;DHT22;40724;53.196;5.980;2023-04-08T16:47:39;9.70;99.90
54824;DHT22;40724;53.196;5.980;2023-04-08T16:50:08;9.60;99.90
54824;DHT22;40724;53.196;5.980;2023-04-08T16:52:34;9.60;99.90
54824;DHT22;40724;53.196;5.980;2023-04-08T16:55:00;9.60;99.90
54824;DHT22;40724;53.196;5.980;2023-04-08T16:57:26;9.60;99.90
54824;DHT22;40724;53.196;5.980;2023-04-08T16:59:52;9.50;99.90
54824;DHT22;40724;53.196;5.980;2023-04-08T17:02:18;9.50;99.90
54824;DHT22;40724;53.196;5.980;2023-04-08T17:04:48;9.50;99.90
54824;DHT22;40724;53.196;5.980;2023-04-08T17:07:14;9.50;99.90
54824;DHT22;40724;53.196;5.980;2023-04-08T17:09:40;9.40;99.90
54824;DHT22;40724;53.196;5.980;2023-04-08T17:12:06;9.40;99.90
54824;DHT22;40724;53.196;5.980;2023-04-08T17:14:35;9.40;99.90
54824;DHT22;40724;53.196;5.980;2023-04-08T17:17:01;9.40;99.90
54824;DHT22;40724;53.196;5.980;2023-04-08T17:19:26;9.30;99.90
54824;DHT22;40724;53.196;5.980;2023-04-08T17:21:52;9.30;99.90
54824;DHT22;40724;53.196;5.980;2023-04-08T17:24:18;9.30;99.90
54824;DHT22;40724;53.196;5.980;2023-04-08T17:26:44;9.30;99.90
54824;DHT22;40724;53.196;5.980;2023-04-08T17:29:10;9.30;99.90
54824;DHT22;40724;53.196;5.980;2023-04-08T17:31:36;9.30;99.90
54824;DHT22;40724;53.196;5.980;2023-04-08T17:34:04;9.30;99.90
54824;DHT22;40724;53.196;5.980;2023-04-08T17:36:29;9.20;99.90
54824;DHT22;40724;53.196;5.980;2023-04-08T17:38:55;9.30;99.90
54824;DHT22;40724;53.196;5.980;2023-04-08T17:41:22;9.20;99.90
54824;DHT22;40724;53.196;5.980;2023-04-08T17:43:47;9.20;99.90
54824;DHT22;40724;53.196;5.980;2023-04-08T17:46:13;9.20;99.90
54824;DHT22;40724;53.196;5.980;2023-04-08T17:48:39;9.20;99.90
54824;DHT22;40724;53.196;5.980;2023-04-08T17:51:05;9.20;99.90
54824;DHT22;40724;53.196;5.980;2023-04-08T17:53:32;9.20;99.90
54824;DHT22;40724;53.196;5.980;2023-04-08T17:55:59;9.20;99.90
54824;DHT22;40724;53.196;5.980;2023-04-08T17:58:25;9.10;99.90
54824;DHT22;40724;53.196;5.980;2023-04-08T18:00:51;9.10;99.90
54824;DHT22;40724;53.196;5.980;2023-04-08T18:03:18;9.10;99.90
54824;DHT22;40724;53.196;5.980;2023-04-08T18:05:44;9.10;99.90
54824;DHT22;40724;53.196;5.980;2023-04-08T18:08:10;9.10;99.90
54824;DHT22;40724;53.196;5.980;2023-04-08T18:10:36;9.10;99.90
54824;DHT22;40724;53.196;5.980;2023-04-08T18:13:02;9.00;99.90
54824;DHT22;40724;53.196;5.980;2023-04-08T18:15:28;9.00;99.90
54824;DHT22;40724;53.196;5.980;2023-04-08T18:17:54;9.00;99.90
54824;DHT22;40724;53.196;5.980;2023-04-08T18:20:20;9.00;99.90
54824;DHT22;40724;53.196;5.980;2023-04-08T18:22:46;9.00;99.90
54824;DHT22;40724;53.196;5.980;2023-04-08T18:25:13;9.00;99.90
54824;DHT22;40724;53.196;5.980;2023-04-08T18:27:39;9.00;99.90
54824;DHT22;40724;53.196;5.980;2023-04-08T18:30:05;9.00;99.90
54824;DHT22;40724;53.196;5.980;2023-04-08T18:32:32;9.00;99.90
54824;DHT22;40724;53.196;5.980;2023-04-08T18:34:58;8.90;99.90
54824;DHT22;40724;53.196;5.980;2023-04-08T18:37:23;8.90;99.90
54824;DHT22;40724;53.196;5.980;2023-04-08T18:39:49;9.00;99.90
54824;DHT22;40724;53.196;5.980;2023-04-08T18:42:16;8.90;99.90
54824;DHT22;40724;53.196;5.980;2023-04-08T18:44:41;9.00;99.90
54824;DHT22;40724;53.196;5.980;2023-04-08T18:47:08;8.90;99.90
54824;DHT22;40724;53.196;5.980;2023-04-08T18:49:34;8.90;99.90
54824;DHT22;40724;53.196;5.980;2023-04-08T18:52:03;8.90;99.90
54824;DHT22;40724;53.196;5.980;2023-04-08T18:54:29;8.90;99.90
54824;DHT22;40724;53.196;5.980;2023-04-08T18:56:55;8.90;99.90
54824;DHT22;40724;53.196;5.980;2023-04-08T18:59:21;8.90;99.90
54824;DHT22;40724;53.196;5.980;2023-04-08T19:01:48;8.90;99.90
54824;DHT22;40724;53.196;5.980;2023-04-08T19:04:13;8.80;99.90
54824;DHT22;40724;53.196;5.980;2023-04-08T19:06:39;8.80;99.90
54824;DHT22;40724;53.196;5.980;2023-04-08T19:09:07;8.80;99.90
54824;DHT22;40724;53.196;5.980;2023-04-08T19:11:33;8.80;99.90
54824;DHT22;40724;53.196;5.980;2023-04-08T19:13:58;8.80;99.90
54824;DHT22;40724;53.196;5.980;2023-04-08T19:16:24;8.80;99.90
54824;DHT22;40724;53.196;5.980;2023-04-08T19:18:51;8.80;99.90
54824;DHT22;40724;53.196;5.980;2023-04-08T19:21:18;8.80;99.90
54824;DHT22;40724;53.196;5.980;2023-04-08T19:23:44;8.80;99.90
54824;DHT22;40724;53.196;5.980;2023-04-08T19:26:12;8.70;99.90
54824;DHT22;40724;53.196;5.980;2023-04-08T19:28:38;8.80;99.90
54824;DHT22;40724;53.196;5.980;2023-04-08T19:31:03;8.70;99.90
54824;DHT22;40724;53.196;5.980;2023-04-08T19:33:29;8.70;99.90
54824;DHT22;40724;53.196;5.980;2023-04-08T19:35:56;8.70;99.90
54824;DHT22;40724;53.196;5.980;2023-04-08T19:38:22;8.70;99.90
54824;DHT22;40724;53.196;5.980;2023-04-08T19:40:48;8.70;99.90
54824;DHT22;40724;53.196;5.980;2023-04-08T19:43:14;8.70;99.90
54824;DHT22;40724;53.196;5.980;2023-04-08T19:45:40;8.70;99.90
54824;DHT22;40724;53.196;5.980;2023-04-08T19:48:07;8.70;99.90
54824;DHT22;40724;53.196;5.980;2023-04-08T19:50:36;8.70;99.90
54824;DHT22;40724;53.196;5.980;2023-04-08T19:53:02;8.70;99.90
54824;DHT22;40724;53.196;5.980;2023-04-08T19:55:28;8.70;99.90
54824;DHT22;40724;53.196;5.980;2023-04-08T19:57:54;8.70;99.90
54824;DHT22;40724;53.196;5.980;2023-04-08T20:00:20;8.70;99.90
54824;DHT22;40724;53.196;5.980;2023-04-08T20:02:46;8.70;99.90
54824;DHT22;40724;53.196;5.980;2023-04-08T20:05:12;8.70;99.90
54824;DHT22;40724;53.196;5.980;2023-04-08T20:07:41;8.70;99.90
54824;DHT22;40724;53.196;5.980;2023-04-08T20:10:08;8.70;99.90
54824;DHT22;40724;53.196;5.980;2023-04-08T20:12:34;8.70;99.90
54824;DHT22;40724;53.196;5.980;2023-04-08T20:14:59;8.60;99.90
54824;DHT22;40724;53.196;5.980;2023-04-08T20:17:25;8.60;99.90
54824;DHT22;40724;53.196;5.980;2023-04-08T20:19:52;8.60;99.90
54824;DHT22;40724;53.196;5.980;2023-04-08T20:22:19;8.60;99.90
54824;DHT22;40724;53.196;5.980;2023-04-08T20:24:45;8.70;99.90
54824;DHT22;40724;53.196;5.980;2023-04-08T20:27:12;8.70;99.90
54824;DHT22;40724;53.196;5.980;2023-04-08T20:29:38;8.70;99.90
54824;DHT22;40724;53.196;5.980;2023-04-08T20:32:06;8.60;99.90
54824;DHT22;40724;53.196;5.980;2023-04-08T20:34:32;8.70;99.90
54824;DHT22;40724;53.196;5.980;2023-04-08T20:36:57;8.60;99.90
54824;DHT22;40724;53.196;5.980;2023-04-08T20:39:23;8.70;99.90
54824;DHT22;40724;53.196;5.980;2023-04-08T20:41:54;8.70;99.90
54824;DHT22;40724;53.196;5.980;2023-04-08T20:44:23;8.70;99.90
54824;DHT22;40724;53.196;5.980;2023-04-08T20:46:48;8.70;99.90
54824;DHT22;40724;53.196;5.980;2023-04-08T20:49:14;8.70;99.90
54824;DHT22;40724;53.196;5.980;2023-04-08T20:51:40;8.60;99.90
54824;DHT22;40724;53.196;5.980;2023-04-08T20:54:09;8.70;99.90
54824;DHT22;40724;53.196;5.980;2023-04-08T20:56:35;8.70;99.90
54824;DHT22;40724;53.196;5.980;2023-04-08T20:59:01;8.70;99.90
54824;DHT22;40724;53.196;5.980;2023-04-08T21:01:27;8.70;99.90
54824;DHT22;40724;53.196;5.980;2023-04-08T21:03:52;8.70;99.90
54824;DHT22;40724;53.196;5.980;2023-04-08T21:06:19;8.60;99.90
54824;DHT22;40724;53.196;5.980;2023-04-08T21:08:46;8.70;99.90
54824;DHT22;40724;53.196;5.980;2023-04-08T21:11:12;8.60;99.90
54824;DHT22;40724;53.196;5.980;2023-04-08T21:13:38;8.60;99.90
54824;DHT22;40724;53.196;5.980;2023-04-08T21:16:05;8.70;99.90
54824;DHT22;40724;53.196;5.980;2023-04-08T21:18:31;8.60;99.90
54824;DHT22;40724;53.196;5.980;2023-04-08T21:20:57;8.60;99.90
54824;DHT22;40724;53.196;5.980;2023-04-08T21:23:23;8.70;99.90
54824;DHT22;40724;53.196;5.980;2023-04-08T21:25:49;8.60;99.90
54824;DHT22;40724;53.196;5.980;2023-04-08T21:28:14;8.60;99.90
54824;DHT22;40724;53.196;5.980;2023-04-08T21:30:40;8.60;99.90
54824;DHT22;40724;53.196;5.980;2023-04-08T21:33:06;8.60;99.90
54824;DHT22;40724;53.196;5.980;2023-04-08T21:35:33;8.60;99.90
54824;DHT22;40724;53.196;5.980;2023-04-08T21:37:59;8.60;99.90
54824;DHT22;40724;53.196;5.980;2023-04-08T21:40:25;8.60;99.90
54824;DHT22;40724;53.196;5.980;2023-04-08T21:42:51;8.60;99.90
54824;DHT22;40724;53.196;5.980;2023-04-08T21:45:17;8.60;99.90
54824;DHT22;40724;53.196;5.980;2023-04-08T21:47:43;8.60;99.90
54824;DHT22;40724;53.196;5.980;2023-04-08T21:50:09;8.60;99.90
54824;DHT22;40724;53.196;5.980;2023-04-08T21:52:35;8.60;99.90
54824;DHT22;40724;53.196;5.980;2023-04-08T21:55:04;8.60;99.90
54824;DHT22;40724;53.196;5.980;2023-04-08T21:57:30;8.60;99.90
54824;DHT22;40724;53.196;5.980;2023-04-08T21:59:55;8.60;99.90
54824;DHT22;40724;53.196;5.980;2023-04-08T22:02:21;8.60;99.90
54824;DHT22;40724;53.196;5.980;2023-04-08T22:04:47;8.60;99.90
54824;DHT22;40724;53.196;5.980;2023-04-08T22:07:13;8.60;99.90
54824;DHT22;40724;53.196;5.980;2023-04-08T22:09:39;8.60;99.90
54824;DHT22;40724;53.196;5.980;2023-04-08T22:12:05;8.60;99.90
54824;DHT22;40724;53.196;5.980;2023-04-08T22:14:31;8.60;99.90
54824;DHT22;40724;53.196;5.980;2023-04-08T22:16:57;8.60;99.90
54824;DHT22;40724;53.196;5.980;2023-04-08T22:19:22;8.60;99.90
54824;DHT22;40724;53.196;5.980;2023-04-08T22:21:48;8.60;99.90
54824;DHT22;40724;53.196;5.980;2023-04-08T22:24:19;8.60;99.90
54824;DHT22;40724;53.196;5.980;2023-04-08T22:26:45;8.60;99.90
